createdAt,value
2022-09-12T00:01:13.063Z,99406.48
2022-09-12T00:06:23.458Z,99404.74
2022-09-12T00:11:31.256Z,99404.70
2022-09-12T00:16:40.195Z,99402.23
2022-09-12T00:21:48.505Z,99403.46
2022-09-12T00:26:56.576Z,99403.27
2022-09-12T00:32:05.094Z,99403.33
2022-09-12T00:37:13.215Z,99406.13
2022-09-12T00:42:21.304Z,99406.29
2022-09-12T00:47:31.422Z,99405.96
2022-09-12T00:52:43.040Z,99401.44
2022-09-12T00:57:55.895Z,99404.35
2022-09-12T01:03:06.888Z,99401.70
2022-09-12T01:08:14.911Z,99402.71
2022-09-12T01:13:22.909Z,99398.83
2022-09-12T01:18:42.563Z,99400.05
2022-09-12T01:24:32.767Z,99406.20
2022-09-12T01:30:07.037Z,99407.10
2022-09-12T01:35:23.278Z,99407.08
2022-09-12T01:40:37.007Z,99406.20
2022-09-12T01:45:55.605Z,99404.79
2022-09-12T01:51:12.255Z,99406.32
2022-09-12T01:56:23.812Z,99408.42
2022-09-12T02:01:34.623Z,99403.31
2022-09-12T02:06:47.653Z,99410.02
2022-09-12T02:11:59.669Z,99413.37
2022-09-12T02:17:12.470Z,99411.45
2022-09-12T02:22:24.414Z,99410.64
2022-09-12T02:27:39.822Z,99409.41
2022-09-12T02:33:00.081Z,99407.18
2022-09-12T02:38:12.109Z,99409.88
2022-09-12T02:43:20.193Z,99410.45
2022-09-12T02:48:33.381Z,99412.95
2022-09-12T02:53:41.202Z,99412.86
2022-09-12T02:58:50.316Z,99414.52
2022-09-12T03:04:13.021Z,99414.20
2022-09-12T03:09:29.950Z,99418.31
2022-09-12T03:15:01.987Z,99421.18
2022-09-12T03:20:18.530Z,99424.34
2022-09-12T03:25:30.235Z,99428.45
2022-09-12T03:30:43.705Z,99437.24
2022-09-12T03:35:52.486Z,99443.95
2022-09-12T03:41:00.468Z,99445.95
2022-09-12T03:46:08.624Z,99447.75
2022-09-12T03:51:16.508Z,99450.11
2022-09-12T03:56:24.776Z,99448.79
2022-09-12T04:01:33.682Z,99454.63
2022-09-12T04:06:42.406Z,99456.66
2022-09-12T04:11:50.541Z,99459.91
2022-09-12T04:16:58.525Z,99468.24
2022-09-12T04:22:06.751Z,99468.67
2022-09-12T04:27:14.758Z,99470.73
2022-09-12T04:32:22.758Z,99477.27
2022-09-12T04:37:31.103Z,99488.56
2022-09-12T04:42:39.256Z,99490.55
2022-09-12T04:47:47.962Z,99492.36
2022-09-12T04:52:57.147Z,99499.80
2022-09-12T04:58:05.533Z,99502.48
2022-09-12T05:03:13.703Z,99506.91
2022-09-12T05:08:22.063Z,99511.45
2022-09-12T05:13:30.253Z,99514.44
2022-09-12T05:18:39.791Z,99518.12
2022-09-12T05:23:49.395Z,99521.42
2022-09-12T05:28:58.269Z,99521.38
2022-09-12T05:34:07.510Z,99521.34
2022-09-12T05:39:14.983Z,99524.23
2022-09-12T05:44:23.127Z,99525.27
2022-09-12T05:49:54.131Z,99530.91
2022-09-12T05:55:02.394Z,99539.13
2022-09-12T06:00:13.405Z,99548.16
2022-09-12T06:05:21.493Z,99548.63
2022-09-12T06:10:30.060Z,99551.58
2022-09-12T06:15:38.176Z,99547.50
2022-09-12T06:20:46.269Z,99551.88
2022-09-12T06:25:54.431Z,99559.46
2022-09-12T06:31:08.096Z,99560.05
2022-09-12T06:36:18.425Z,99560.73
2022-09-12T06:41:27.696Z,99557.58
2022-09-12T06:46:35.946Z,99557.70
2022-09-12T06:51:44.936Z,99557.30
2022-09-12T06:56:52.957Z,99562.98
2022-09-12T07:02:02.249Z,99569.05
2022-09-12T07:07:10.631Z,99569.19
2022-09-12T07:12:18.919Z,99574.54
2022-09-12T07:17:27.395Z,99579.91
2022-09-12T07:22:35.835Z,99582.08
2022-09-12T07:27:46.207Z,99584.99
2022-09-12T07:32:58.241Z,99582.08
2022-09-12T07:38:06.505Z,99582.66
2022-09-12T07:43:14.998Z,99585.05
2022-09-12T07:48:23.364Z,99588.67
2022-09-12T07:53:37.292Z,99597.02
2022-09-12T07:58:46.270Z,99598.38
2022-09-12T08:03:59.178Z,99600.30
2022-09-12T08:09:08.157Z,99602.11
2022-09-12T08:14:18.055Z,99613.67
2022-09-12T08:19:26.100Z,99620.39
2022-09-12T08:24:34.080Z,99624.35
2022-09-12T08:29:42.017Z,99631.23
2022-09-12T08:34:50.060Z,99628.49
2022-09-12T08:39:58.348Z,99631.39
2022-09-12T08:45:24.628Z,99629.04
2022-09-12T08:50:32.901Z,99635.73
2022-09-12T08:55:42.947Z,99632.45
2022-09-12T09:00:59.834Z,99640.58
2022-09-12T09:06:23.595Z,99643.21
2022-09-12T09:11:55.871Z,99646.45
2022-09-12T09:17:02.433Z,99646.11
2022-09-12T09:22:16.366Z,99651.95
2022-09-12T09:27:40.872Z,99650.34
2022-09-12T09:32:53.227Z,99650.17
2022-09-12T09:38:14.645Z,99645.30
2022-09-12T09:43:27.907Z,99656.35
2022-09-12T09:48:37.421Z,99657.96
2022-09-12T09:53:52.000Z,99658.78
2022-09-12T09:59:10.473Z,99658.04
2022-09-12T10:04:24.210Z,99662.55
2022-09-12T10:09:34.346Z,99665.36
2022-09-12T10:14:43.943Z,99666.32
2022-09-12T10:20:10.911Z,99668.19
2022-09-12T10:25:27.550Z,99669.00
2022-09-12T10:30:35.630Z,99666.27
2022-09-12T10:35:51.592Z,99670.52
2022-09-12T10:41:05.643Z,99675.20
2022-09-12T10:46:33.419Z,99677.00
2022-09-12T10:51:41.689Z,99676.42
2022-09-12T10:57:05.229Z,99680.38
2022-09-12T11:02:26.613Z,99683.42
2022-09-12T11:07:55.449Z,99687.02
2022-09-12T11:13:17.118Z,99691.20
2022-09-12T11:18:52.517Z,99691.86
2022-09-12T11:24:31.059Z,99691.57
2022-09-12T11:29:51.554Z,99696.05
2022-09-12T11:35:16.581Z,99701.28
2022-09-12T11:40:34.134Z,99700.83
2022-09-12T11:45:46.140Z,99698.03
2022-09-12T11:50:53.044Z,99693.73
2022-09-12T11:56:07.826Z,99698.30
2022-09-12T12:01:22.820Z,99701.86
2022-09-12T12:06:33.329Z,99700.84
2022-09-12T12:11:45.514Z,99702.19
2022-09-12T12:16:53.957Z,99702.46
2022-09-12T12:22:10.876Z,99704.81
2022-09-12T12:27:47.026Z,99702.94
2022-09-12T12:33:00.904Z,99705.08
2022-09-12T12:38:29.010Z,99706.08
2022-09-12T12:43:37.020Z,99705.70
2022-09-12T12:49:12.710Z,99708.54
2022-09-12T12:54:56.455Z,99710.88
2022-09-12T13:00:09.193Z,99706.47
2022-09-12T13:05:24.889Z,99704.88
2022-09-12T13:10:34.349Z,99709.48
2022-09-12T13:15:55.909Z,99709.42
2022-09-12T13:21:12.586Z,99709.49
2022-09-12T13:26:26.933Z,99707.34
2022-09-12T13:31:35.271Z,99704.54
2022-09-12T13:36:58.731Z,99698.58
2022-09-12T13:42:32.584Z,99697.41
2022-09-12T13:47:43.292Z,99697.56
2022-09-12T13:52:54.867Z,99700.96
2022-09-12T13:58:05.238Z,99698.56
2022-09-12T14:03:47.651Z,99698.25
2022-09-12T14:08:55.417Z,99695.95
2022-09-12T14:14:08.306Z,99692.31
2022-09-12T14:19:17.757Z,99691.06
2022-09-12T14:24:26.249Z,99690.36
2022-09-12T14:29:35.049Z,99695.98
2022-09-12T14:34:43.038Z,99695.10
2022-09-12T14:39:51.283Z,99692.52
2022-09-12T14:45:03.485Z,99697.73
2022-09-12T14:50:21.350Z,99698.11
2022-09-12T14:55:34.031Z,99695.58
2022-09-12T15:00:58.133Z,99696.67
2022-09-12T15:06:08.948Z,99696.11
2022-09-12T15:11:20.193Z,99695.27
2022-09-12T15:16:28.408Z,99702.29
2022-09-12T15:21:36.755Z,99704.39
2022-09-12T15:26:44.748Z,99701.48
2022-09-12T15:31:54.158Z,99701.15
2022-09-12T15:37:01.176Z,99700.40
2022-09-12T15:42:10.395Z,99702.90
2022-09-12T15:47:18.387Z,99711.60
2022-09-12T15:52:26.142Z,99717.82
2022-09-12T15:57:34.189Z,99723.24
2022-09-12T16:02:42.472Z,99720.70
2022-09-12T16:07:52.436Z,99731.39
2022-09-12T16:13:01.131Z,99735.86
2022-09-12T16:18:09.238Z,99734.11
2022-09-12T16:23:17.554Z,99739.48
2022-09-12T16:28:26.661Z,99740.67
2022-09-12T16:33:35.731Z,99744.08
2022-09-12T16:38:48.110Z,99742.00
2022-09-12T16:43:56.919Z,99747.14
2022-09-12T16:49:06.332Z,99745.55
2022-09-12T16:54:14.860Z,99749.54
2022-09-12T16:59:23.106Z,99748.96
2022-09-12T17:04:31.118Z,99746.83
2022-09-12T17:09:39.596Z,99765.46
2022-09-12T17:14:48.095Z,99768.11
2022-09-12T17:19:55.432Z,99773.38
2022-09-12T17:25:03.652Z,99771.30
2022-09-12T17:30:13.562Z,99769.19
2022-09-12T17:35:22.125Z,99774.09
2022-09-12T17:40:55.653Z,99767.74
2022-09-12T17:46:01.080Z,99772.30
2022-09-12T17:51:14.630Z,99763.67
2022-09-12T17:56:22.587Z,99761.71
2022-09-12T18:01:49.838Z,99765.02
2022-09-12T18:07:00.678Z,99769.23
2022-09-12T18:12:09.705Z,99769.88
2022-09-12T18:17:17.153Z,99766.36
2022-09-12T18:22:25.421Z,99765.85
2022-09-12T18:27:33.354Z,99765.14
2022-09-12T18:32:41.919Z,99771.73
2022-09-12T18:37:50.209Z,99771.77
2022-09-12T18:42:58.105Z,99772.80
2022-09-12T18:48:06.864Z,99775.95
2022-09-12T18:53:15.154Z,99772.76
2022-09-12T18:58:23.292Z,99774.91
2022-09-12T19:03:31.757Z,99777.23
2022-09-12T19:08:39.970Z,99778.99
2022-09-12T19:13:50.688Z,99777.52
2022-09-12T19:18:59.922Z,99778.52
2022-09-12T19:24:11.923Z,99775.29
2022-09-12T19:29:20.015Z,99774.84
2022-09-12T19:34:28.771Z,99780.25
2022-09-12T19:39:36.740Z,99778.10
2022-09-12T19:44:45.199Z,99779.93
2022-09-12T19:49:54.026Z,99778.11
2022-09-12T19:55:02.040Z,99774.10
2022-09-12T20:00:10.960Z,99774.33
2022-09-12T20:05:20.105Z,99772.39
2022-09-12T20:10:28.445Z,99771.48
2022-09-12T20:15:36.603Z,99770.75
2022-09-12T20:20:44.537Z,99765.13
2022-09-12T20:25:52.603Z,99756.69
2022-09-12T20:31:04.244Z,99752.30
2022-09-12T20:36:15.040Z,99751.05
2022-09-12T20:41:23.652Z,99747.59
2022-09-12T20:46:32.361Z,99742.02
2022-09-12T20:51:40.964Z,99739.61
2022-09-12T20:56:49.017Z,99741.13
2022-09-12T21:01:57.397Z,99737.87
2022-09-12T21:07:05.593Z,99739.02
2022-09-12T21:12:13.678Z,99736.83
2022-09-12T21:17:20.917Z,99733.58
2022-09-12T21:22:28.917Z,99732.61
2022-09-12T21:27:37.022Z,99726.95
2022-09-12T21:32:45.306Z,99711.91
2022-09-12T21:37:54.870Z,99720.13
2022-09-12T21:43:02.860Z,99718.58
2022-09-12T21:48:11.413Z,99717.56
2022-09-12T21:53:19.397Z,99710.70
2022-09-12T21:58:28.715Z,99706.58
2022-09-12T22:03:36.891Z,99705.25
2022-09-12T22:08:44.990Z,99706.16
2022-09-12T22:13:53.190Z,99701.33
2022-09-12T22:19:01.629Z,99702.08
2022-09-12T22:24:29.713Z,99700.60
2022-09-12T22:29:38.859Z,99691.47
2022-09-12T22:34:46.978Z,99694.20
2022-09-12T22:39:55.620Z,99690.46
2022-09-12T22:45:03.913Z,99691.48
2022-09-12T22:50:12.663Z,99686.55
2022-09-12T22:55:21.307Z,99685.13
2022-09-12T23:00:30.116Z,99691.02
2022-09-12T23:05:39.898Z,99688.04
2022-09-12T23:10:48.019Z,99689.39
2022-09-12T23:16:03.177Z,99692.70
2022-09-12T23:21:12.473Z,99693.04
2022-09-12T23:26:22.198Z,99694.79
2022-09-12T23:31:31.347Z,99691.98
2022-09-12T23:36:39.566Z,99686.92
2022-09-12T23:41:47.509Z,99685.98
2022-09-12T23:46:55.601Z,99684.57
2022-09-12T23:52:04.234Z,99684.50
2022-09-12T23:57:12.308Z,99679.24
